Time;durP1;ratioP1;P1;durP2;ratioP2;P2;SDS_P1;SDS_P2;PMS_P1;PMS_P2;Temp;Humidity;BMP_temperature;BMP_pressure;BME280_temperature;BME280_humidity;BME280_pressure;Samples;Min_cycle;Max_cycle;Signal;HPM_P1;HPM_P2
2022/03/25 00:00:19;;;;;;;17.50;8.47;;;;;;;12.73;30.88;99652.69;5112870;28;20201;-48
2022/03/25 00:02:47;;;;;;;15.07;8.40;;;;;;;12.74;31.03;99651.78;5112742;28;20191;-52
2022/03/25 00:05:13;;;;;;;10.67;8.40;;;;;;;12.72;30.95;99646.63;5112867;28;20201;-52
2022/03/25 00:07:41;;;;;;;10.47;8.13;;;;;;;12.67;31.19;99645.06;5111453;28;20194;-51
2022/03/25 00:10:09;;;;;;;14.20;8.27;;;;;;;12.71;30.75;99654.50;5112561;28;20202;-51
2022/03/25 00:12:36;;;;;;;14.37;9.37;;;;;;;12.72;30.81;99648.38;5112729;28;20222;-50
2022/03/25 00:15:06;;;;;;;11.03;8.13;;;;;;;12.75;30.78;99648.28;5112555;28;20194;-51
2022/03/25 00:17:34;;;;;;;8.50;7.70;;;;;;;12.72;30.58;99643.16;5112807;28;20285;-49
2022/03/25 00:20:01;;;;;;;10.50;7.97;;;;;;;12.80;30.67;99651.56;5112681;28;20198;-49
2022/03/25 00:22:28;;;;;;;9.47;8.07;;;;;;;12.82;30.25;99641.94;5112374;28;20692;-49
2022/03/25 00:24:54;;;;;;;13.87;7.73;;;;;;;12.80;30.30;99642.88;5112669;28;20604;-50
2022/03/25 00:27:23;;;;;;;9.33;8.33;;;;;;;12.80;30.59;99640.28;5112433;28;20198;-48
2022/03/25 00:29:50;;;;;;;12.83;8.63;;;;;;;12.79;30.37;99647.25;5112282;28;20198;-51
2022/03/25 00:32:20;;;;;;;9.13;8.20;;;;;;;12.77;30.36;99633.44;5112281;28;20264;-50
2022/03/25 00:34:46;;;;;;;11.33;8.50;;;;;;;12.78;30.46;99640.34;5112263;28;20218;-49
2022/03/25 00:37:13;;;;;;;10.43;8.63;;;;;;;12.71;30.47;99628.44;5112469;28;20199;-51
2022/03/25 00:39:40;;;;;;;12.47;8.30;;;;;;;12.85;30.74;99643.59;5112280;28;20198;-50
2022/03/25 00:42:09;;;;;;;9.90;8.90;;;;;;;12.85;30.81;99643.59;5112013;28;20191;-50
2022/03/25 00:44:36;;;;;;;8.97;7.90;;;;;;;12.79;30.88;99644.66;5112104;28;20195;-49
2022/03/25 00:47:03;;;;;;;13.10;9.10;;;;;;;12.70;30.97;99644.97;5112197;28;20209;-50
2022/03/25 00:49:32;;;;;;;16.30;8.53;;;;;;;12.62;31.28;99636.59;5112166;28;20204;-50
2022/03/25 00:51:59;;;;;;;16.30;8.87;;;;;;;12.59;31.36;99641.91;5112005;28;20198;-50
2022/03/25 00:54:27;;;;;;;9.93;7.60;;;;;;;12.57;31.18;99638.50;5112025;28;20198;-50
2022/03/25 00:56:55;;;;;;;9.90;8.23;;;;;;;12.50;31.60;99637.03;5111827;28;20260;-50
2022/03/25 00:59:22;;;;;;;14.07;8.33;;;;;;;12.55;31.40;99637.69;5111870;28;20195;-52
2022/03/25 01:01:48;;;;;;;17.47;8.03;;;;;;;12.53;31.80;99642.09;5111543;28;20205;-50
2022/03/25 01:04:16;;;;;;;13.03;7.87;;;;;;;12.50;31.52;99635.25;5112043;28;20194;-50
2022/03/25 01:06:45;;;;;;;10.30;7.67;;;;;;;12.52;31.60;99640.44;5111982;28;20191;-51
2022/03/25 01:09:11;;;;;;;14.17;8.43;;;;;;;12.51;32.04;99630.91;5111632;28;20194;-50
2022/03/25 01:11:39;;;;;;;8.53;7.57;;;;;;;12.43;32.10;99633.75;5111760;28;20685;-51
2022/03/25 01:14:08;;;;;;;8.53;7.73;;;;;;;12.40;32.31;99628.69;5111550;28;20258;-51
2022/03/25 01:16:35;;;;;;;9.73;7.83;;;;;;;12.45;31.88;99625.91;5111244;28;20241;-51
2022/03/25 01:19:02;;;;;;;11.33;7.80;;;;;;;12.39;31.99;99615.72;5111204;28;20194;-51
2022/03/25 01:21:29;;;;;;;10.63;8.60;;;;;;;12.34;32.03;99624.53;5111468;28;20193;-51
2022/03/25 01:23:57;;;;;;;12.13;8.57;;;;;;;12.33;32.10;99629.78;5111492;28;20620;-51
2022/03/25 01:26:24;;;;;;;9.10;8.03;;;;;;;12.24;32.35;99625.75;5111409;28;20203;-50
2022/03/25 01:28:52;;;;;;;12.60;7.77;;;;;;;12.21;32.98;99625.84;5111068;28;20689;-49
2022/03/25 01:31:19;;;;;;;9.73;7.83;;;;;;;12.17;33.01;99626.84;5111304;28;20683;-50
2022/03/25 01:33:46;;;;;;;13.23;8.50;;;;;;;12.16;32.94;99626.91;5110558;28;20224;-52
2022/03/25 01:36:13;;;;;;;10.97;8.10;;;;;;;12.13;32.57;99627.84;5111362;28;20333;-51
2022/03/25 01:38:40;;;;;;;9.33;8.20;;;;;;;12.03;32.66;99629.06;5110948;28;20574;-50
2022/03/25 01:41:08;;;;;;;11.00;8.27;;;;;;;12.02;33.53;99629.09;5111063;28;20243;-50
2022/03/25 01:43:36;;;;;;;9.83;8.30;;;;;;;11.96;33.25;99619.75;5110999;28;20209;-49
2022/03/25 01:46:03;;;;;;;12.30;8.43;;;;;;;11.97;32.94;99627.50;5111102;28;20311;-50
2022/03/25 01:48:30;;;;;;;12.53;8.40;;;;;;;11.94;33.36;99635.41;5111121;28;20696;-49
2022/03/25 01:50:57;;;;;;;8.80;8.00;;;;;;;11.90;33.43;99630.34;5110919;28;20197;-49
2022/03/25 01:53:26;;;;;;;9.27;8.03;;;;;;;11.85;33.20;99633.09;5110663;28;20260;-49
2022/03/25 01:55:56;;;;;;;8.80;7.77;;;;;;;11.83;33.64;99624.50;5111332;28;20580;-50
2022/03/25 01:58:25;;;;;;;9.73;7.90;;;;;;;11.84;33.62;99633.16;5110755;28;20201;-51
2022/03/25 02:00:53;;;;;;;14.47;8.47;;;;;;;11.84;33.71;99639.22;5110837;28;20195;-49
2022/03/25 02:03:21;;;;;;;8.73;7.87;;;;;;;11.76;33.63;99642.94;5110400;28;20198;-50
2022/03/25 02:05:48;;;;;;;8.70;7.90;;;;;;;11.71;33.82;99648.28;5110877;28;20696;-49
2022/03/25 02:08:16;;;;;;;10.70;8.10;;;;;;;11.75;33.75;99649.00;5110749;28;20601;-51
2022/03/25 02:10:44;;;;;;;11.97;8.53;;;;;;;11.68;33.87;99640.56;5110575;28;20662;-50
2022/03/25 02:13:11;;;;;;;13.43;8.27;;;;;;;11.61;34.21;99647.72;5110742;28;20226;-50
2022/03/25 02:15:42;;;;;;;15.03;8.43;;;;;;;11.54;34.31;99651.38;5110714;28;20222;-51
2022/03/25 02:18:11;;;;;;;10.33;7.93;;;;;;;11.53;33.89;99654.88;5110673;28;20597;-50
2022/03/25 02:20:39;;;;;;;10.97;8.07;;;;;;;11.43;34.18;99653.44;5110972;28;20739;-51
2022/03/25 02:23:08;;;;;;;10.40;8.43;;;;;;;11.50;34.34;99660.19;5110400;28;20197;-52
2022/03/25 02:25:35;;;;;;;12.00;7.83;;;;;;;11.42;34.61;99653.47;5110421;28;20208;-50
2022/03/25 02:28:04;;;;;;;15.63;8.33;;;;;;;11.38;34.62;99650.16;5110635;28;20194;-50
2022/03/25 02:30:32;;;;;;;10.70;8.50;;;;;;;11.34;34.60;99655.47;5112668;28;20259;-50
2022/03/25 02:33:01;;;;;;;10.23;8.07;;;;;;;11.29;34.79;99658.19;5114547;28;20254;-50
2022/03/25 02:35:39;;;;;;;11.97;7.53;;;;;;;11.18;35.44;99657.66;5114791;28;20198;-51
2022/03/25 02:38:08;;;;;;;10.63;8.20;;;;;;;11.18;34.66;99655.91;5114664;28;20573;-50
2022/03/25 02:40:36;;;;;;;8.50;7.60;;;;;;;11.16;35.54;99654.28;5114774;28;20198;-51
2022/03/25 02:43:03;;;;;;;9.93;8.27;;;;;;;11.16;35.34;99651.69;5114801;28;20600;-50
2022/03/25 02:45:30;;;;;;;11.87;8.13;;;;;;;11.23;35.37;99655.78;5114752;28;20199;-50
2022/03/25 02:47:57;;;;;;;9.50;8.10;;;;;;;11.14;35.97;99667.31;5114311;28;20201;-50
2022/03/25 02:50:25;;;;;;;9.90;7.70;;;;;;;11.13;35.49;99656.97;5114212;28;20195;-50
2022/03/25 02:52:51;;;;;;;10.33;8.30;;;;;;;11.09;35.49;99657.94;5114210;28;20222;-50
2022/03/25 02:55:20;;;;;;;11.20;7.73;;;;;;;11.12;35.67;99666.50;5114171;28;20195;-49
2022/03/25 02:57:47;;;;;;;10.73;7.90;;;;;;;11.09;35.65;99663.97;5114276;28;20201;-51
2022/03/25 03:00:14;;;;;;;9.23;8.33;;;;;;;11.10;35.51;99667.44;5114349;28;20198;-50
2022/03/25 03:02:41;;;;;;;10.10;8.13;;;;;;;11.13;35.68;99670.78;5114261;28;20201;-51
2022/03/25 03:05:08;;;;;;;12.70;8.10;;;;;;;11.05;35.96;99667.56;5114240;28;20583;-49
2022/03/25 03:07:37;;;;;;;9.37;8.10;;;;;;;10.99;35.37;99665.13;5114352;28;21161;-49
2022/03/25 03:10:04;;;;;;;8.97;7.70;;;;;;;10.97;35.89;99666.06;5113869;28;20240;-51
2022/03/25 03:12:33;;;;;;;12.37;7.87;;;;;;;10.96;36.48;99669.56;5113954;28;20194;-51
2022/03/25 03:15:00;;;;;;;13.97;8.10;;;;;;;10.88;36.74;99662.84;5113874;28;20195;-50
2022/03/25 03:17:28;;;;;;;18.57;8.53;;;;;;;10.77;35.92;99653.63;5113764;28;20658;-50
2022/03/25 03:19:55;;;;;;;11.83;8.70;;;;;;;10.82;36.90;99670.81;5113794;28;20233;-51
2022/03/25 03:22:22;;;;;;;11.67;7.87;;;;;;;10.79;35.82;99662.25;5113743;28;20293;-50
2022/03/25 03:24:49;;;;;;;14.13;8.40;;;;;;;10.74;36.04;99640.72;5113987;28;20647;-50
2022/03/25 03:27:16;;;;;;;10.53;8.10;;;;;;;10.73;36.07;99645.06;5113748;28;20191;-50
2022/03/25 03:29:44;;;;;;;11.23;7.93;;;;;;;10.77;35.84;99651.91;5113747;28;20684;-51
2022/03/25 03:32:11;;;;;;;13.13;9.13;;;;;;;10.75;36.43;99645.88;5113679;28;20205;-51
2022/03/25 03:34:38;;;;;;;16.40;8.50;;;;;;;10.78;36.07;99644.97;5113584;28;20222;-52
2022/03/25 03:37:05;;;;;;;9.10;8.13;;;;;;;10.77;35.97;99640.66;5113350;28;20202;-51
2022/03/25 03:39:32;;;;;;;11.90;9.10;;;;;;;10.80;36.36;99645.78;5113333;28;20199;-51
2022/03/25 03:41:59;;;;;;;12.70;8.80;;;;;;;10.81;36.09;99650.94;5113086;27;20198;-50
2022/03/25 03:44:26;;;;;;;10.37;7.70;;;;;;;10.81;35.72;99643.13;5133785;27;20190;-51
2022/03/25 03:46:55;;;;;;;13.57;8.40;;;;;;;10.77;35.88;99643.25;5133720;27;20202;-51
2022/03/25 03:49:21;;;;;;;12.63;7.67;;;;;;;10.77;35.61;99643.25;5133856;27;20190;-48
2022/03/25 03:51:48;;;;;;;11.10;7.87;;;;;;;10.76;36.24;99650.19;5133941;27;20673;-50
2022/03/25 03:54:15;;;;;;;9.03;7.80;;;;;;;10.77;36.22;99648.44;5134051;27;20222;-49
2022/03/25 03:56:43;;;;;;;10.70;7.40;;;;;;;10.71;36.44;99651.22;5133704;27;20225;-51
2022/03/25 03:59:09;;;;;;;13.40;9.10;;;;;;;10.73;36.07;99650.25;5133383;27;20190;-51
2022/03/25 04:01:37;;;;;;;11.27;8.70;;;;;;;10.72;36.28;99647.75;5096456;27;20218;-52
2022/03/25 04:04:05;;;;;;;15.73;8.43;;;;;;;10.73;36.17;99639.88;5091139;28;20311;-48
2022/03/25 04:06:32;;;;;;;11.90;8.40;;;;;;;10.72;36.27;99639.94;5092731;28;20265;-50
2022/03/25 04:08:59;;;;;;;12.30;8.03;;;;;;;10.76;36.33;99644.16;5091905;28;20219;-48
2022/03/25 04:11:26;;;;;;;11.97;8.40;;;;;;;10.75;36.11;99642.44;5091861;28;20227;-49
2022/03/25 04:13:54;;;;;;;10.40;7.63;;;;;;;10.75;36.39;99643.28;5091635;28;20249;-50
2022/03/25 04:16:22;;;;;;;8.60;7.70;;;;;;;10.67;36.71;99619.28;5092093;28;20300;-52
2022/03/25 04:18:49;;;;;;;12.37;8.03;;;;;;;10.76;36.74;99639.81;5091372;28;20219;-52
2022/03/25 04:21:17;;;;;;;11.93;7.97;;;;;;;10.77;36.99;99636.31;5113370;27;20228;-51
2022/03/25 04:23:44;;;;;;;8.90;8.00;;;;;;;10.76;36.26;99629.41;5112212;28;20715;-52
2022/03/25 04:26:11;;;;;;;9.47;7.80;;;;;;;10.88;36.27;99643.81;5112005;28;20223;-52
2022/03/25 04:28:38;;;;;;;8.23;7.37;;;;;;;10.91;35.77;99644.59;5111910;28;20218;-50
2022/03/25 04:31:05;;;;;;;10.60;8.17;;;;;;;10.93;35.90;99643.69;5111894;28;20218;-51
2022/03/25 04:33:34;;;;;;;10.03;8.10;;;;;;;10.95;36.32;99645.31;5111638;28;20234;-50
2022/03/25 04:36:01;;;;;;;8.57;7.60;;;;;;;10.97;36.33;99650.47;5111737;28;20246;-50
2022/03/25 04:38:30;;;;;;;14.30;8.07;;;;;;;11.03;36.26;99648.56;5111656;28;20655;-49
2022/03/25 04:40:57;;;;;;;9.83;8.17;;;;;;;11.05;35.67;99651.13;5111727;28;20751;-50
2022/03/25 04:43:24;;;;;;;14.17;7.97;;;;;;;11.03;35.77;99652.91;5111705;28;20305;-51
2022/03/25 04:45:51;;;;;;;13.90;8.07;;;;;;;11.12;35.76;99655.25;5111618;28;20233;-50
2022/03/25 04:48:18;;;;;;;11.03;8.03;;;;;;;11.18;36.45;99666.31;5111530;28;20221;-51
2022/03/25 04:50:45;;;;;;;13.33;7.97;;;;;;;11.12;36.23;99669.09;5111322;28;20222;-52
2022/03/25 04:53:12;;;;;;;17.03;8.23;;;;;;;11.21;35.89;99660.19;5110702;28;20223;-52
2022/03/25 04:55:41;;;;;;;17.90;8.30;;;;;;;11.26;35.86;99668.69;5111647;28;20716;-52
2022/03/25 04:58:08;;;;;;;20.97;8.97;;;;;;;11.29;36.46;99666.84;5111292;28;21560;-49
2022/03/25 05:00:37;;;;;;;11.07;8.43;;;;;;;11.44;36.00;99670.75;5111495;28;20297;-50
2022/03/25 05:03:04;;;;;;;10.20;8.33;;;;;;;11.43;35.83;99663.84;5110960;28;20250;-52
2022/03/25 05:05:32;;;;;;;10.80;7.93;;;;;;;11.50;35.96;99665.38;5111129;28;20222;-50
2022/03/25 05:07:59;;;;;;;13.83;8.60;;;;;;;11.59;36.00;99672.91;5110909;28;20222;-51
2022/03/25 05:10:27;;;;;;;13.47;8.60;;;;;;;11.79;35.38;99676.66;5111081;28;20234;-51
2022/03/25 05:12:56;;;;;;;14.83;8.50;;;;;;;11.98;35.17;99677.75;5111106;28;20223;-51
2022/03/25 05:15:23;;;;;;;14.27;9.23;;;;;;;12.07;34.96;99671.44;5111204;28;20264;-51
2022/03/25 05:17:52;;;;;;;14.30;9.43;;;;;;;12.18;34.77;99670.19;5110919;28;20244;-51
2022/03/25 05:20:21;;;;;;;14.50;9.67;;;;;;;12.36;34.57;99666.97;5110788;28;20233;-51
2022/03/25 05:22:49;;;;;;;20.03;9.80;;;;;;;12.73;34.20;99670.91;5110994;28;20679;-51
2022/03/25 05:25:17;;;;;;;14.40;8.97;;;;;;;13.78;32.91;99678.28;5110888;28;20224;-52
2022/03/25 05:27:48;;;;;;;12.67;9.67;;;;;;;15.26;30.78;99672.88;5111068;28;20232;-52
2022/03/25 05:30:20;;;;;;;14.93;9.13;;;;;;;16.87;28.45;99682.53;5110730;28;20230;-52
2022/03/25 05:32:47;;;;;;;10.53;8.47;;;;;;;18.31;27.05;99681.59;5110423;28;20313;-51
2022/03/25 05:35:14;;;;;;;15.90;9.00;;;;;;;19.64;25.31;99682.31;5110000;28;20338;-51
2022/03/25 05:37:41;;;;;;;9.60;8.40;;;;;;;20.26;24.36;99678.28;5120698;27;20218;-51
2022/03/25 05:40:10;;;;;;;9.83;8.63;;;;;;;20.97;23.85;99682.31;5108323;27;20229;-51
2022/03/25 05:42:38;;;;;;;20.17;9.57;;;;;;;21.46;23.34;99690.31;5108828;27;20607;-51
2022/03/25 05:45:06;;;;;;;10.45;9.38;;;;;;;22.07;22.83;99686.78;5108327;28;20214;-52
2022/03/25 05:47:36;;;;;;;10.68;8.98;;;;;;;22.45;22.03;99691.88;5107896;27;20668;-51
2022/03/25 05:50:03;;;;;;;12.82;8.30;;;;;;;22.82;21.69;99697.03;5116813;27;20224;-52
2022/03/25 05:52:30;;;;;;;15.32;9.35;;;;;;;23.43;21.36;99694.94;5118788;27;20225;-52
2022/03/25 05:54:57;;;;;;;13.38;9.07;;;;;;;24.28;20.62;99697.81;5120452;27;20232;-52
2022/03/25 05:57:25;;;;;;;12.90;7.80;;;;;;;24.99;19.90;99690.97;5118894;27;20221;-52
2022/03/25 05:59:52;;;;;;;14.73;9.05;;;;;;;25.53;19.33;99695.94;5119395;27;20293;-50
2022/03/25 06:02:19;;;;;;;17.50;9.27;;;;;;;26.13;19.11;99700.31;5119652;27;20310;-50
2022/03/25 06:04:47;;;;;;;9.95;8.98;;;;;;;26.42;18.81;99703.03;5118212;27;20328;-50
2022/03/25 06:07:14;;;;;;;9.43;8.50;;;;;;;26.70;18.42;99702.16;5120201;27;20224;-51
2022/03/25 06:09:41;;;;;;;10.90;8.40;;;;;;;26.57;18.66;99698.97;5118204;27;20238;-52
2022/03/25 06:12:10;;;;;;;11.63;8.57;;;;;;;26.51;18.25;99707.53;5117400;27;20522;-51
2022/03/25 06:14:37;;;;;;;9.45;8.55;;;;;;;26.70;18.24;99704.84;5106924;28;20225;-50
2022/03/25 06:17:04;;;;;;;9.13;8.13;;;;;;;26.77;18.19;99707.75;5111691;27;20269;-51
2022/03/25 06:19:31;;;;;;;13.35;8.73;;;;;;;26.67;18.32;99705.13;5117751;27;20213;-52
2022/03/25 06:22:00;;;;;;;13.43;8.65;;;;;;;27.24;17.98;99705.16;5117599;28;20702;-51
2022/03/25 06:24:27;;;;;;;16.80;8.82;;;;;;;26.67;18.61;99697.13;5116682;28;20214;-54
2022/03/25 06:26:54;;;;;;;11.55;8.73;;;;;;;27.02;18.01;99701.84;5116077;28;20221;-51
2022/03/25 06:29:21;;;;;;;11.05;8.68;;;;;;;27.09;18.03;99697.63;5117822;28;20222;-52
2022/03/25 06:31:48;;;;;;;16.45;8.95;;;;;;;27.28;17.92;99702.06;5109896;28;20274;-53
2022/03/25 06:34:20;;;;;;;14.55;8.88;;;;;;;28.16;17.68;99703.28;5110237;28;20618;-52
2022/03/25 06:36:48;;;;;;;9.15;8.25;;;;;;;28.09;17.28;99704.88;5114523;28;20226;-52
2022/03/25 06:39:17;;;;;;;10.88;8.48;;;;;;;28.52;17.48;99709.50;5109427;28;20218;-52
2022/03/25 06:41:44;;;;;;;12.13;8.35;;;;;;;28.82;17.36;99709.09;5109984;28;20280;-53
2022/03/25 06:44:11;;;;;;;14.80;9.50;;;;;;;29.43;17.27;99712.69;5130351;28;20217;-52
2022/03/25 06:46:38;;;;;;;17.20;8.68;;;;;;;30.04;16.40;99704.38;5130529;27;20260;-52
2022/03/25 06:49:06;;;;;;;11.88;9.50;;;;;;;30.33;16.34;99709.28;5127307;28;20305;-52
2022/03/25 06:51:34;;;;;;;12.30;9.40;;;;;;;29.71;16.03;99713.28;5109617;28;20731;-51
2022/03/25 06:54:01;;;;;;;14.55;8.98;;;;;;;29.59;15.70;99710.06;5109035;28;20224;-51
2022/03/25 06:56:33;;;;;;;19.73;10.60;;;;;;;29.86;16.38;99717.03;5109817;28;20215;-52
2022/03/25 06:59:01;;;;;;;13.90;9.45;;;;;;;30.03;16.14;99718.75;5109657;28;20223;-51
2022/03/25 07:01:31;;;;;;;11.57;9.50;;;;;;;30.26;16.00;99711.78;5127443;27;20701;-50
2022/03/25 07:03:58;;;;;;;13.63;9.30;;;;;;;30.60;15.44;99708.16;5130297;28;20294;-51
2022/03/25 07:06:26;;;;;;;13.98;9.20;;;;;;;30.12;15.62;99712.44;5130032;27;20225;-49
2022/03/25 07:08:55;;;;;;;13.38;10.27;;;;;;;30.14;16.17;99715.78;5129567;28;20317;-51
2022/03/25 07:11:23;;;;;;;16.15;10.38;;;;;;;30.39;15.19;99724.69;5117850;28;20218;-51
2022/03/25 07:13:52;;;;;;;14.15;9.65;;;;;;;30.25;15.08;99712.78;5130165;28;20217;-49
2022/03/25 07:16:19;;;;;;;19.77;10.18;;;;;;;30.47;15.52;99722.03;5118418;28;20218;-52
2022/03/25 07:18:46;;;;;;;22.30;9.95;;;;;;;30.98;14.98;99718.19;5121216;27;20197;-51
2022/03/25 07:21:13;;;;;;;18.17;10.38;;;;;;;31.88;15.17;99709.88;5123259;27;20662;-50
2022/03/25 07:23:40;;;;;;;16.08;10.60;;;;;;;32.21;14.52;99708.69;5113713;28;20198;-50
2022/03/25 07:26:07;;;;;;;16.50;9.70;;;;;;;32.97;13.97;99714.97;5122342;27;20235;-50
2022/03/25 07:28:35;;;;;;;12.43;10.00;;;;;;;33.68;13.55;99716.22;5122290;27;20200;-50
2022/03/25 07:31:05;;;;;;;13.32;9.43;;;;;;;33.90;13.20;99709.91;5115985;27;20263;-50
2022/03/25 07:33:32;;;;;;;17.25;9.73;;;;;;;34.46;13.16;99702.00;5120833;27;20197;-51
2022/03/25 07:36:00;;;;;;;18.08;9.77;;;;;;;34.60;12.94;99712.72;5117915;27;20600;-51
2022/03/25 07:38:28;;;;;;;12.07;10.10;;;;;;;34.16;12.96;99717.44;5116815;27;20194;-50
2022/03/25 07:40:55;;;;;;;18.52;10.50;;;;;;;33.33;13.37;99701.69;5132243;27;20194;-50
2022/03/25 07:43:22;;;;;;;17.80;10.65;;;;;;;33.11;13.50;99704.25;5117292;27;20216;-49
2022/03/25 07:45:49;;;;;;;14.32;10.05;;;;;;;34.15;12.99;99699.59;5123597;27;20186;-51
2022/03/25 07:48:18;;;;;;;15.43;9.68;;;;;;;34.92;12.39;99692.47;5125767;27;20201;-50
2022/03/25 07:50:46;;;;;;;13.13;10.05;;;;;;;34.75;12.22;99688.41;5119160;27;20211;-50
2022/03/25 07:53:13;;;;;;;15.50;10.20;;;;;;;34.79;12.32;99691.53;5113025;28;20195;-50
2022/03/25 07:55:40;;;;;;;18.15;9.77;;;;;;;34.67;11.97;99698.44;5111829;28;20242;-51
2022/03/25 07:58:07;;;;;;;23.77;11.23;;;;;;;35.30;12.03;99694.81;5112204;28;20281;-53
2022/03/25 08:00:35;;;;;;;11.50;9.45;;;;;;;35.76;11.67;99694.22;5113012;28;20234;-53
2022/03/25 08:03:02;;;;;;;13.43;10.32;;;;;;;35.26;11.96;99682.75;5112628;28;20226;-53
2022/03/25 08:05:30;;;;;;;12.90;10.27;;;;;;;35.47;12.06;99689.91;5112783;28;20194;-53
2022/03/25 08:07:57;;;;;;;12.45;10.55;;;;;;;35.48;11.80;99691.56;5112824;28;20195;-54
2022/03/25 08:10:26;;;;;;;13.25;10.98;;;;;;;34.14;12.50;99679.06;5113028;28;20974;-51
2022/03/25 08:12:54;;;;;;;15.32;10.25;;;;;;;31.86;13.55;99656.34;5112838;28;20191;-53
2022/03/25 08:15:22;;;;;;;15.18;10.77;;;;;;;30.55;14.54;99681.88;5112616;28;20252;-53
2022/03/25 08:17:54;;;;;;;16.15;10.38;;;;;;;28.56;15.55;99664.63;5112641;28;20203;-53
2022/03/25 08:20:24;;;;;;;15.75;11.38;;;;;;;27.42;16.58;99661.59;5112521;28;20194;-50
2022/03/25 08:22:53;;;;;;;26.52;14.35;;;;;;;25.24;17.79;99674.59;5112564;28;20758;-50
2022/03/25 08:28:05;;;;;;;25.60;14.25;;;;;;;23.64;18.62;99655.31;5111599;28;20201;-49
2022/03/25 08:30:33;;;;;;;18.60;13.45;;;;;;;23.15;19.56;99660.00;5112873;28;20209;-51
2022/03/25 08:33:03;;;;;;;30.40;12.38;;;;;;;22.68;19.93;99645.16;5112411;28;20206;-49
2022/03/25 08:35:30;;;;;;;21.45;12.85;;;;;;;22.45;20.27;99644.28;5112331;28;20596;-50
2022/03/25 08:37:58;;;;;;;39.20;12.95;;;;;;;22.15;20.45;99649.19;5112218;28;20195;-50
2022/03/25 08:40:27;;;;;;;15.98;12.40;;;;;;;21.92;20.22;99644.72;5112283;28;20195;-50
2022/03/25 08:42:54;;;;;;;18.17;12.05;;;;;;;21.65;20.71;99635.22;5112422;28;20194;-50
2022/03/25 08:45:21;;;;;;;18.48;12.77;;;;;;;21.87;20.25;99633.66;5111924;28;20191;-50
2022/03/25 08:47:49;;;;;;;19.42;12.98;;;;;;;21.80;20.83;99635.91;5112087;28;20205;-50
2022/03/25 08:50:18;;;;;;;19.38;13.10;;;;;;;21.69;21.34;99626.13;5111619;27;20234;-49
2022/03/25 08:52:46;;;;;;;19.80;13.65;;;;;;;21.53;20.72;99617.63;5117573;27;20199;-49
2022/03/25 08:55:16;;;;;;;26.73;13.70;;;;;;;21.23;21.68;99615.38;5115159;27;20653;-50
2022/03/25 08:57:43;;;;;;;42.33;14.55;;;;;;;21.07;20.83;99614.75;5118149;27;20198;-50
2022/03/25 09:00:13;;;;;;;41.33;14.95;;;;;;;20.98;20.90;99604.84;5112924;27;20225;-50
2022/03/25 09:02:42;;;;;;;29.27;14.68;;;;;;;21.08;21.02;99620.88;5123917;27;20198;-50
2022/03/25 09:05:10;;;;;;;46.40;15.27;;;;;;;20.80;20.85;99619.31;5127925;27;20577;-49
2022/03/25 09:07:38;;;;;;;51.70;15.90;;;;;;;20.55;21.16;99617.50;5122266;27;20607;-50
2022/03/25 09:10:05;;;;;;;42.58;15.07;;;;;;;20.60;20.99;99615.41;5124833;27;20190;-50
2022/03/25 09:12:34;;;;;;;24.10;14.32;;;;;;;20.55;21.62;99607.78;5120361;27;20202;-50
2022/03/25 09:15:01;;;;;;;28.40;13.68;;;;;;;20.54;21.36;99615.84;5121793;27;20214;-50
2022/03/25 09:17:28;;;;;;;27.85;13.27;;;;;;;20.50;21.43;99611.72;5130896;27;20284;-50
2022/03/25 09:19:55;;;;;;;21.58;13.77;;;;;;;20.49;21.36;99600.31;5132138;27;20622;-51
2022/03/25 09:22:22;;;;;;;14.73;13.23;;;;;;;20.62;21.37;99608.25;5131887;27;20198;-52
2022/03/25 09:24:49;;;;;;;20.90;14.73;;;;;;;20.70;21.33;99607.69;5132162;27;20212;-52
2022/03/25 09:27:16;;;;;;;18.23;14.30;;;;;;;20.65;21.29;99608.03;5131874;27;20294;-52
2022/03/25 09:29:45;;;;;;;21.35;13.55;;;;;;;20.55;21.32;99593.75;5123295;27;20281;-52
2022/03/25 09:32:12;;;;;;;16.13;12.15;;;;;;;20.50;21.90;99606.44;5110690;28;20190;-48
2022/03/25 09:37:23;;;;;;;20.55;12.70;;;;;;;20.62;21.25;99605.59;5111388;28;20197;-52
2022/03/25 09:39:50;;;;;;;19.17;12.57;;;;;;;20.70;21.42;99599.78;5124482;27;20666;-52
2022/03/25 09:42:17;;;;;;;14.55;12.60;;;;;;;20.79;21.27;99600.00;5131523;27;20561;-51
2022/03/25 09:44:46;;;;;;;20.75;12.65;;;;;;;20.76;21.18;99605.50;5132054;27;20189;-52
2022/03/25 09:47:16;;;;;;;17.85;12.82;;;;;;;20.87;21.62;99610.03;5115328;27;20197;-52
2022/03/25 09:49:43;;;;;;;15.68;12.60;;;;;;;20.97;21.23;99601.38;5119699;27;20285;-52
2022/03/25 09:52:10;;;;;;;21.38;12.25;;;;;;;21.12;21.32;99596.78;5118792;27;20200;-53
2022/03/25 09:54:37;;;;;;;21.30;12.52;;;;;;;21.30;21.11;99594.69;5119693;27;20614;-53
2022/03/25 09:57:05;;;;;;;18.35;13.45;;;;;;;21.17;20.95;99594.66;5115716;27;20579;-52
2022/03/25 09:59:32;;;;;;;19.92;12.38;;;;;;;21.01;21.03;99604.59;5118253;27;20189;-53
2022/03/25 10:02:01;;;;;;;14.00;12.43;;;;;;;21.22;21.35;99586.47;5131686;27;20196;-52
2022/03/25 10:04:41;;;;;;;24.77;12.88;;;;;;;21.19;21.07;99591.97;5131720;27;20661;-53
2022/03/25 10:07:19;;;;;;;14.63;12.65;;;;;;;21.08;21.21;99578.66;5131129;27;20197;-51
2022/03/25 10:09:48;;;;;;;17.70;12.18;;;;;;;21.15;21.22;99590.44;5131030;27;20580;-52
2022/03/25 10:12:23;;;;;;;14.68;12.05;;;;;;;21.23;21.05;99598.69;5130963;27;20634;-53
2022/03/25 10:14:52;;;;;;;15.52;11.90;;;;;;;21.28;20.94;99596.56;5131150;27;20201;-53
2022/03/25 10:17:20;;;;;;;17.73;12.35;;;;;;;21.21;21.08;99593.53;5130962;27;20280;-53
2022/03/25 10:19:49;;;;;;;14.95;11.65;;;;;;;21.16;21.03;99603.53;5131184;27;20198;-52
2022/03/25 10:22:18;;;;;;;13.18;10.18;;;;;;;20.95;20.41;99595.34;5130918;27;20585;-51
2022/03/25 10:24:47;;;;;;;13.73;9.18;;;;;;;21.05;19.85;99590.25;5130860;27;20202;-53
2022/03/25 10:27:28;;;;;;;10.07;8.98;;;;;;;20.89;19.55;99590.47;5130898;28;20288;-52
2022/03/25 10:29:55;;;;;;;14.38;10.10;;;;;;;20.78;20.59;99595.66;5126281;28;20197;-51
2022/03/25 10:32:25;;;;;;;15.60;11.57;;;;;;;20.69;21.12;99582.28;5095779;28;20232;-49
2022/03/25 10:35:03;;;;;;;16.13;12.73;;;;;;;20.86;21.66;99590.72;5109046;28;20273;-48
2022/03/25 10:37:30;;;;;;;14.40;11.48;;;;;;;20.99;21.10;99599.44;5109167;28;20230;-48
2022/03/25 10:39:57;;;;;;;19.00;8.82;;;;;;;20.79;19.00;99568.31;5110166;28;20670;-49
2022/03/25 10:42:24;;;;;;;14.23;8.15;;;;;;;20.52;19.07;99594.00;5130562;28;20694;-48
2022/03/25 10:44:51;;;;;;;20.30;7.68;;;;;;;20.12;18.64;99594.00;5130785;28;20737;-48
2022/03/25 10:47:26;;;;;;;17.60;8.10;;;;;;;20.11;18.57;99586.19;5130609;28;20190;-48
2022/03/25 10:49:54;;;;;;;15.43;8.43;;;;;;;19.92;18.78;99582.16;5130713;27;20201;-47
2022/03/25 10:52:23;;;;;;;18.58;8.57;;;;;;;20.16;18.62;99578.84;5134673;27;20227;-49
2022/03/25 10:54:51;;;;;;;13.48;7.85;;;;;;;20.27;18.71;99581.59;5134617;27;20197;-48
2022/03/25 10:57:18;;;;;;;11.32;7.93;;;;;;;20.38;17.69;99581.75;5134490;27;20214;-49
2022/03/25 11:00:00;;;;;;;17.80;8.20;;;;;;;20.22;19.16;99576.63;5133142;27;20194;-49
2022/03/25 11:02:28;;;;;;;19.13;7.00;;;;;;;20.26;17.45;99575.47;5133513;27;20205;-48
2022/03/25 11:04:56;;;;;;;22.42;6.97;;;;;;;20.08;17.89;99560.91;5134681;27;20197;-48
2022/03/25 11:07:25;;;;;;;54.83;9.15;;;;;;;20.06;17.60;99562.81;5134904;27;20191;-49
2022/03/25 11:09:53;;;;;;;15.15;6.45;;;;;;;19.99;17.60;99571.19;5134639;27;20202;-49
2022/03/25 11:12:22;;;;;;;11.75;6.55;;;;;;;20.04;17.77;99563.84;5134400;27;20689;-50
2022/03/25 11:14:49;;;;;;;10.85;6.45;;;;;;;20.01;17.43;99570.16;5134335;27;20680;-52
2022/03/25 11:17:19;;;;;;;13.52;6.43;;;;;;;19.85;17.32;99566.88;5130780;27;20230;-52
2022/03/25 11:19:49;;;;;;;13.65;6.55;;;;;;;19.87;17.56;99564.94;5113691;28;20233;-48
2022/03/25 11:22:18;;;;;;;15.02;6.30;;;;;;;19.84;17.16;99560.75;5113382;28;20226;-48
2022/03/25 11:24:49;;;;;;;6.32;5.03;;;;;;;19.86;16.80;99558.03;5113733;28;20222;-50
2022/03/25 11:27:20;;;;;;;8.63;5.33;;;;;;;19.87;16.40;99560.53;5112481;28;20301;-49
2022/03/25 11:29:52;;;;;;;20.40;5.88;;;;;;;19.81;16.49;99557.47;5113570;28;20227;-52
2022/03/25 11:32:19;;;;;;;11.07;6.22;;;;;;;19.83;16.34;99564.34;5113044;28;20229;-53